Flight Track Log - Related Links

Times and Time Zones

All times are in EST time to prevent confusion due to time zone crossing. See the AIP5010 flight status page for this flight to view local times or setup timezone preferences in your user account.

Time Position Orientation Groundspeed Altitude Reporting Facility
EST Latitude Longitude Course Direction KTS MPH feet Rate Location/Type
Fri 01:45:58 AM 47.4319 -111.3108 131° Southeast 156 180 7,300  Level Salt Lake Center
Fri 01:46:59 AM 47.4031 -111.2592 130° Southeast 160 184 8,900 1,438 Climbing Salt Lake Center
Fri 01:47:59 AM 47.3722 -111.2044 130° Southeast 166 191 10,200 1,636 Climbing Salt Lake Center
Fri 01:49:00 AM 47.3328 -111.1367 131° Southeast 175 201 12,200 1,636 Climbing Salt Lake Center
Fri 01:50:00 AM 47.2500 -110.9598 131° Southeast  Level Estimated
Fri 01:50:00 AM 47.3006 -111.0786 129° Southeast 180 207 13,500  Level Salt Lake Center
Fri 01:51:01 AM 47.2661 -111.0197 131° Southeast 185 213 15,000 744 Climbing Salt Lake Center
Fri 01:52:01 AM 47.2303 -110.9581 131° Southeast 190 219 15,000  Level Salt Lake Center
Fri 01:53:02 AM 47.1919 -110.8864 128° Southeast 205 236 15,000  Level Salt Lake Center
Fri 01:54:02 AM 47.1522 -110.8139 129° Southeast 218 251 15,000 50 Level Salt Lake Center
Fri 01:55:03 AM 47.1117 -110.7419 130° Southeast 225 259 15,100 -50 Climbing Salt Lake Center
Fri 01:56:03 AM 47.0728 -110.6700 128° Southeast 226 260 14,900 -99 Descending Salt Lake Center
Fri 01:57:04 AM 47.0311 -110.6011 132° Southeast 227 261 14,900  Level Salt Lake Center
Fri 01:58:04 AM 46.9906 -110.5328 131° Southeast 225 259 14,900 50 Level Salt Lake Center
Fri 01:59:05 AM 46.9497 -110.4617 130° Southeast 226 260 15,000 50 Climbing Salt Lake Center
Fri 02:00:05 AM 46.9061 -110.3881 131° Southeast 232 267 15,000 -50 Level Salt Lake Center
Fri 02:01:06 AM 46.8622 -110.3128 130° Southeast 238 274 14,900 -50 Descending Salt Lake Center
Fri 02:02:06 AM 46.8197 -110.2381 130° Southeast 240 276 14,900  Level Salt Lake Center
Fri 02:03:07 AM 46.7781 -110.1644 130° Southeast 239 275 14,900  Level Salt Lake Center
Fri 02:04:07 AM 46.7372 -110.0922 130° Southeast 234 269 14,900  Level Salt Lake Center
Fri 02:05:08 AM 46.6958 -110.0242 132° Southeast 229 264 14,900  Level Salt Lake Center
Fri 02:06:08 AM 46.6544 -109.9553 131° Southeast 225 259 14,900  Level Salt Lake Center
Fri 02:07:09 AM 46.6108 -109.8819 131° Southeast 232 267 14,900  Level Salt Lake Center
Fri 02:08:09 AM 46.5675 -109.8086 131° Southeast 237 273 14,900 -50 Level Salt Lake Center
Fri 02:09:10 AM 46.5256 -109.7347 130° Southeast 238 274 14,800  Descending Salt Lake Center
Fri 02:10:10 AM 46.4747 -109.6486 131° Southeast 236 272 14,900 50 Climbing Salt Lake Center
Fri 02:11:11 AM 46.4319 -109.5775 131° Southeast 239 275 14,900  Level Salt Lake Center
Fri 02:12:11 AM 46.3900 -109.5044 130° Southeast 240 276 14,900  Level Salt Lake Center
Fri 02:13:12 AM 46.3492 -109.4350 130° Southeast 230 265 14,900 50 Level Salt Lake Center
Fri 02:14:12 AM 46.3053 -109.3594 130° Southeast 230 265 15,000 -99 Climbing Salt Lake Center
Fri 02:15:13 AM 46.2633 -109.2878 130° Southeast 235 270 14,700 -545 Descending Salt Lake Center
Fri 02:16:13 AM 46.2169 -109.2133 132° Southeast 250 288 13,900 -793 Descending Salt Lake Center
Fri 02:17:14 AM 46.1706 -109.1325 130° Southeast 262 302 13,100 -793 Descending Salt Lake Center
Fri 02:18:14 AM 46.1292 -109.0408 123° Southeast 274 315 12,300 -900 Descending Salt Lake Center
Fri 02:19:14 AM 46.0850 -108.9450 124° Southeast 269 310 11,300 -1,041 Descending Salt Lake Center
Fri 02:20:15 AM 46.0433 -108.8536 123° Southeast 276 318 10,200 -1,240 Descending Salt Lake Center
Fri 02:21:15 AM 45.9992 -108.7719 128° Southeast 264 304 8,800 -1,339 Descending Salt Lake Center
Fri 02:22:16 AM 45.9544 -108.6964 130° Southeast 253 291 7,500 -1,140 Descending Salt Lake Center
Fri 02:23:16 AM 45.9122 -108.6211 129° Southeast 246 283 6,500 -1,041 Descending Salt Lake Center
Fri 02:24:17 AM 45.8703 -108.5492 130° Southeast 238 274 5,400 -992 Descending Salt Lake Center
Fri 02:25:17 AM 45.8303 -108.4803 130° Southeast 206 237 4,500 -694 Descending Salt Lake Center
Fri 02:26:18 AM 45.8014 -108.4889 192° South 120 138 4,000 -496 Descending Salt Lake Center
Fri 02:27:18 AM 45.8042 -108.5242 276° West 102 117 3,500 -500 Descending Salt Lake Center
Fri 02:29:00 AM 45.8000 -108.5333 270° West  Level FlightAware Approximate

Login

Don't have an account? Register now (free) for customized features, flight alerts, and more!